sensor_id;sensor_type;location;lat;lon;timestamp;pressure;altitude;pressure_sealevel;temperature;humidity
20019;BME280;10170;42.502;26.526;2022-10-20T00:01:24;99944.84;;;11.12;92.89
20019;BME280;10170;42.502;26.526;2022-10-20T00:03:53;99939.97;;;11.29;87.75
20019;BME280;10170;42.502;26.526;2022-10-20T00:06:22;99938.72;;;11.31;86.43
20019;BME280;10170;42.502;26.526;2022-10-20T00:08:49;99946.09;;;11.29;85.46
20019;BME280;10170;42.502;26.526;2022-10-20T00:11:18;99952.81;;;11.06;100.00
20019;BME280;10170;42.502;26.526;2022-10-20T00:13:46;99955.47;;;10.11;100.00
20019;BME280;10170;42.502;26.526;2022-10-20T00:16:14;99952.56;;;10.06;100.00
20019;BME280;10170;42.502;26.526;2022-10-20T00:18:41;99952.13;;;10.03;100.00
20019;BME280;10170;42.502;26.526;2022-10-20T00:21:14;99933.22;;;10.12;100.00
20019;BME280;10170;42.502;26.526;2022-10-20T00:23:41;99941.44;;;10.24;100.00
20019;BME280;10170;42.502;26.526;2022-10-20T00:26:14;99936.84;;;10.45;100.00
20019;BME280;10170;42.502;26.526;2022-10-20T00:28:42;99932.41;;;10.59;100.00
20019;BME280;10170;42.502;26.526;2022-10-20T00:31:10;99934.06;;;10.67;100.00
20019;BME280;10170;42.502;26.526;2022-10-20T00:33:37;99935.09;;;10.72;100.00
20019;BME280;10170;42.502;26.526;2022-10-20T00:36:06;99920.22;;;10.91;100.00
20019;BME280;10170;42.502;26.526;2022-10-20T00:38:33;99922.31;;;11.08;100.00
20019;BME280;10170;42.502;26.526;2022-10-20T00:41:00;99933.41;;;11.38;100.00
20019;BME280;10170;42.502;26.526;2022-10-20T00:44:00;99938.91;;;11.10;100.00
20019;BME280;10170;42.502;26.526;2022-10-20T00:49:12;99935.66;;;10.54;100.00
20019;BME280;10170;42.502;26.526;2022-10-20T00:51:41;99944.66;;;10.53;100.00
20019;BME280;10170;42.502;26.526;2022-10-20T00:54:12;99944.19;;;10.43;100.00
20019;BME280;10170;42.502;26.526;2022-10-20T00:56:42;99943.41;;;10.49;100.00
20019;BME280;10170;42.502;26.526;2022-10-20T00:59:11;99934.88;;;10.60;100.00
20019;BME280;10170;42.502;26.526;2022-10-20T01:01:40;99948.03;;;10.75;100.00
20019;BME280;10170;42.502;26.526;2022-10-20T01:04:08;99942.50;;;10.70;100.00
20019;BME280;10170;42.502;26.526;2022-10-20T01:06:35;99945.09;;;10.57;100.00
20019;BME280;10170;42.502;26.526;2022-10-20T01:09:02;99932.34;;;10.39;100.00
20019;BME280;10170;42.502;26.526;2022-10-20T01:12:05;99949.63;;;9.95;100.00
20019;BME280;10170;42.502;26.526;2022-10-20T01:20:20;99818.19;;;8.52;100.00
20019;BME280;10170;42.502;26.526;2022-10-20T01:28:36;99976.16;;;9.04;100.00
20019;BME280;10170;42.502;26.526;2022-10-20T01:31:30;99969.88;;;9.26;100.00
20019;BME280;10170;42.502;26.526;2022-10-20T01:34:16;99964.31;;;9.21;100.00
20019;BME280;10170;42.502;26.526;2022-10-20T01:36:54;99962.94;;;8.53;100.00
20019;BME280;10170;42.502;26.526;2022-10-20T01:39:39;99969.41;;;8.66;100.00
20019;BME280;10170;42.502;26.526;2022-10-20T01:42:10;99955.06;;;8.75;100.00
20019;BME280;10170;42.502;26.526;2022-10-20T01:44:39;99966.31;;;8.98;100.00
20019;BME280;10170;42.502;26.526;2022-10-20T01:47:08;99971.00;;;9.38;100.00
20019;BME280;10170;42.502;26.526;2022-10-20T01:49:35;99970.38;;;9.57;100.00
20019;BME280;10170;42.502;26.526;2022-10-20T01:52:03;99951.69;;;9.44;100.00
20019;BME280;10170;42.502;26.526;2022-10-20T01:54:30;99955.72;;;9.40;100.00
20019;BME280;10170;42.502;26.526;2022-10-20T02:03:05;99971.50;;;9.06;100.00
20019;BME280;10170;42.502;26.526;2022-10-20T02:09:01;99979.06;;;9.09;100.00
20019;BME280;10170;42.502;26.526;2022-10-20T02:11:33;99980.59;;;9.18;100.00
20019;BME280;10170;42.502;26.526;2022-10-20T02:14:04;99974.78;;;9.08;100.00
20019;BME280;10170;42.502;26.526;2022-10-20T02:16:38;99971.75;;;9.11;100.00
20019;BME280;10170;42.502;26.526;2022-10-20T02:19:08;99986.28;;;9.15;100.00
20019;BME280;10170;42.502;26.526;2022-10-20T02:21:36;99978.97;;;9.38;100.00
20019;BME280;10170;42.502;26.526;2022-10-20T02:24:05;99990.84;;;9.21;100.00
20019;BME280;10170;42.502;26.526;2022-10-20T02:26:36;99988.69;;;9.31;100.00
20019;BME280;10170;42.502;26.526;2022-10-20T02:29:14;99988.44;;;9.05;100.00
20019;BME280;10170;42.502;26.526;2022-10-20T02:31:43;99985.88;;;8.61;100.00
20019;BME280;10170;42.502;26.526;2022-10-20T02:34:11;99983.84;;;8.78;100.00
20019;BME280;10170;42.502;26.526;2022-10-20T02:36:40;99992.72;;;8.56;100.00
20019;BME280;10170;42.502;26.526;2022-10-20T02:39:08;99995.28;;;8.49;100.00
20019;BME280;10170;42.502;26.526;2022-10-20T02:41:35;99990.63;;;8.66;100.00
20019;BME280;10170;42.502;26.526;2022-10-20T02:44:02;99996.19;;;8.56;100.00
20019;BME280;10170;42.502;26.526;2022-10-20T02:46:29;100007.25;;;8.45;100.00
20019;BME280;10170;42.502;26.526;2022-10-20T02:48:56;100016.75;;;8.39;100.00
20019;BME280;10170;42.502;26.526;2022-10-20T02:51:22;100015.03;;;8.46;100.00
20019;BME280;10170;42.502;26.526;2022-10-20T02:53:49;100015.38;;;8.29;100.00
20019;BME280;10170;42.502;26.526;2022-10-20T02:56:16;100010.56;;;7.95;100.00
20019;BME280;10170;42.502;26.526;2022-10-20T02:58:42;100041.50;;;7.95;100.00
20019;BME280;10170;42.502;26.526;2022-10-20T03:01:09;100032.03;;;8.00;100.00
20019;BME280;10170;42.502;26.526;2022-10-20T03:03:36;100034.16;;;8.19;100.00
20019;BME280;10170;42.502;26.526;2022-10-20T03:06:10;100025.56;;;8.17;100.00
20019;BME280;10170;42.502;26.526;2022-10-20T03:08:37;100040.53;;;8.10;100.00
20019;BME280;10170;42.502;26.526;2022-10-20T03:11:04;100042.84;;;8.13;100.00
20019;BME280;10170;42.502;26.526;2022-10-20T03:13:31;100047.06;;;8.22;100.00
20019;BME280;10170;42.502;26.526;2022-10-20T03:15:59;100053.41;;;8.50;100.00
20019;BME280;10170;42.502;26.526;2022-10-20T03:18:26;100052.13;;;8.61;100.00
20019;BME280;10170;42.502;26.526;2022-10-20T03:20:53;100061.16;;;8.52;100.00
20019;BME280;10170;42.502;26.526;2022-10-20T03:23:20;100046.75;;;8.55;100.00
20019;BME280;10170;42.502;26.526;2022-10-20T03:25:47;100019.97;;;8.35;100.00
20019;BME280;10170;42.502;26.526;2022-10-20T03:28:14;100048.03;;;8.44;100.00
20019;BME280;10170;42.502;26.526;2022-10-20T03:30:41;100039.44;;;8.42;100.00
20019;BME280;10170;42.502;26.526;2022-10-20T03:33:07;100054.25;;;7.77;100.00
20019;BME280;10170;42.502;26.526;2022-10-20T03:35:34;100048.13;;;7.76;100.00
20019;BME280;10170;42.502;26.526;2022-10-20T03:38:01;100045.59;;;7.83;100.00
20019;BME280;10170;42.502;26.526;2022-10-20T03:40:28;100053.72;;;8.18;100.00
20019;BME280;10170;42.502;26.526;2022-10-20T03:42:54;100037.19;;;8.16;100.00
20019;BME280;10170;42.502;26.526;2022-10-20T03:45:21;100049.63;;;8.30;100.00
20019;BME280;10170;42.502;26.526;2022-10-20T03:47:48;100040.53;;;8.47;100.00
20019;BME280;10170;42.502;26.526;2022-10-20T03:50:15;100052.50;;;8.43;100.00
20019;BME280;10170;42.502;26.526;2022-10-20T03:52:42;100043.81;;;8.12;100.00
20019;BME280;10170;42.502;26.526;2022-10-20T03:55:08;100042.91;;;8.28;100.00
20019;BME280;10170;42.502;26.526;2022-10-20T03:57:35;100070.78;;;8.16;100.00
20019;BME280;10170;42.502;26.526;2022-10-20T04:00:02;100044.72;;;8.27;100.00
20019;BME280;10170;42.502;26.526;2022-10-20T04:04:56;100063.94;;;8.21;100.00
20019;BME280;10170;42.502;26.526;2022-10-20T04:07:23;100069.47;;;7.97;100.00
20019;BME280;10170;42.502;26.526;2022-10-20T04:09:50;100066.81;;;7.97;100.00
20019;BME280;10170;42.502;26.526;2022-10-20T04:12:17;100060.16;;;8.01;100.00
20019;BME280;10170;42.502;26.526;2022-10-20T04:14:44;100041.72;;;8.08;100.00
20019;BME280;10170;42.502;26.526;2022-10-20T04:17:10;100039.66;;;7.81;100.00
20019;BME280;10170;42.502;26.526;2022-10-20T04:19:37;100060.50;;;8.21;100.00
20019;BME280;10170;42.502;26.526;2022-10-20T04:22:04;100044.78;;;7.82;100.00
20019;BME280;10170;42.502;26.526;2022-10-20T04:24:31;100068.91;;;8.02;100.00
20019;BME280;10170;42.502;26.526;2022-10-20T04:26:58;100070.81;;;7.93;100.00
20019;BME280;10170;42.502;26.526;2022-10-20T04:29:25;100058.75;;;7.91;100.00
20019;BME280;10170;42.502;26.526;2022-10-20T04:31:51;100085.69;;;7.80;100.00
20019;BME280;10170;42.502;26.526;2022-10-20T04:34:18;100088.78;;;7.61;100.00
20019;BME280;10170;42.502;26.526;2022-10-20T04:36:45;100096.53;;;7.62;100.00
20019;BME280;10170;42.502;26.526;2022-10-20T04:39:12;100087.41;;;7.42;100.00
20019;BME280;10170;42.502;26.526;2022-10-20T04:41:38;100088.00;;;7.75;100.00
20019;BME280;10170;42.502;26.526;2022-10-20T04:44:05;100088.00;;;7.75;100.00
20019;BME280;10170;42.502;26.526;2022-10-20T04:46:32;100099.38;;;8.20;100.00
20019;BME280;10170;42.502;26.526;2022-10-20T04:48:59;100099.78;;;8.32;100.00
20019;BME280;10170;42.502;26.526;2022-10-20T04:51:26;100113.25;;;8.08;100.00
20019;BME280;10170;42.502;26.526;2022-10-20T04:53:53;100029.13;;;7.73;100.00
20019;BME280;10170;42.502;26.526;2022-10-20T04:56:20;100098.28;;;8.15;100.00
20019;BME280;10170;42.502;26.526;2022-10-20T04:58:48;100120.00;;;8.33;100.00
20019;BME280;10170;42.502;26.526;2022-10-20T05:01:16;100108.69;;;8.16;100.00
20019;BME280;10170;42.502;26.526;2022-10-20T05:03:44;100109.16;;;8.20;100.00
20019;BME280;10170;42.502;26.526;2022-10-20T05:06:12;100130.22;;;8.36;100.00
20019;BME280;10170;42.502;26.526;2022-10-20T05:08:40;100125.16;;;8.26;100.00
20019;BME280;10170;42.502;26.526;2022-10-20T05:11:07;100124.00;;;8.29;100.00
20019;BME280;10170;42.502;26.526;2022-10-20T05:13:34;100138.09;;;8.29;100.00
20019;BME280;10170;42.502;26.526;2022-10-20T05:16:02;100132.03;;;8.35;100.00
20019;BME280;10170;42.502;26.526;2022-10-20T05:18:30;100142.16;;;8.55;100.00
20019;BME280;10170;42.502;26.526;2022-10-20T05:20:57;100151.22;;;8.60;100.00
20019;BME280;10170;42.502;26.526;2022-10-20T05:23:34;100145.56;;;8.78;100.00
20019;BME280;10170;42.502;26.526;2022-10-20T05:26:03;100133.88;;;9.01;100.00
20019;BME280;10170;42.502;26.526;2022-10-20T05:28:31;100149.63;;;9.53;100.00
20019;BME280;10170;42.502;26.526;2022-10-20T05:31:02;100150.97;;;9.85;100.00
20019;BME280;10170;42.502;26.526;2022-10-20T05:33:29;100159.50;;;10.16;100.00
20019;BME280;10170;42.502;26.526;2022-10-20T05:35:56;100157.41;;;10.32;100.00
20019;BME280;10170;42.502;26.526;2022-10-20T05:38:23;100170.69;;;10.11;100.00
20019;BME280;10170;42.502;26.526;2022-10-20T05:40:50;100185.41;;;9.93;100.00
20019;BME280;10170;42.502;26.526;2022-10-20T05:43:16;100188.22;;;10.27;100.00
20019;BME280;10170;42.502;26.526;2022-10-20T05:45:43;100200.84;;;10.67;100.00
20019;BME280;10170;42.502;26.526;2022-10-20T05:48:10;100198.09;;;10.82;100.00
20019;BME280;10170;42.502;26.526;2022-10-20T05:50:36;100206.41;;;11.00;100.00
20019;BME280;10170;42.502;26.526;2022-10-20T05:53:04;100194.66;;;11.22;100.00
20019;BME280;10170;42.502;26.526;2022-10-20T05:55:31;100201.00;;;11.61;100.00
20019;BME280;10170;42.502;26.526;2022-10-20T05:57:58;100217.09;;;11.81;100.00
20019;BME280;10170;42.502;26.526;2022-10-20T06:00:25;100231.16;;;12.29;100.00
20019;BME280;10170;42.502;26.526;2022-10-20T06:02:56;100242.47;;;12.50;100.00
20019;BME280;10170;42.502;26.526;2022-10-20T06:05:23;100239.00;;;12.96;100.00
20019;BME280;10170;42.502;26.526;2022-10-20T06:07:52;100229.34;;;12.88;100.00
20019;BME280;10170;42.502;26.526;2022-10-20T06:10:19;100243.94;;;13.18;100.00
20019;BME280;10170;42.502;26.526;2022-10-20T06:12:46;100261.94;;;13.55;100.00
20019;BME280;10170;42.502;26.526;2022-10-20T06:15:13;100260.50;;;12.22;100.00
20019;BME280;10170;42.502;26.526;2022-10-20T06:17:40;100260.34;;;12.69;100.00
20019;BME280;10170;42.502;26.526;2022-10-20T06:20:07;100260.97;;;12.91;100.00
20019;BME280;10170;42.502;26.526;2022-10-20T06:22:33;100260.06;;;13.69;100.00
20019;BME280;10170;42.502;26.526;2022-10-20T06:25:01;100261.50;;;14.09;93.62
20019;BME280;10170;42.502;26.526;2022-10-20T06:27:27;100260.22;;;15.12;85.90
20019;BME280;10170;42.502;26.526;2022-10-20T06:29:54;100256.88;;;15.59;79.53
20019;BME280;10170;42.502;26.526;2022-10-20T06:32:21;100257.09;;;16.23;73.95
20019;BME280;10170;42.502;26.526;2022-10-20T06:34:47;100278.72;;;17.11;68.48
20019;BME280;10170;42.502;26.526;2022-10-20T06:37:14;100275.56;;;17.02;68.66
20019;BME280;10170;42.502;26.526;2022-10-20T06:39:41;100272.56;;;16.39;69.17
20019;BME280;10170;42.502;26.526;2022-10-20T06:42:07;100272.84;;;16.79;68.32
20019;BME280;10170;42.502;26.526;2022-10-20T06:44:37;100272.91;;;17.37;65.12
20019;BME280;10170;42.502;26.526;2022-10-20T06:47:04;100274.88;;;17.41;64.45
20019;BME280;10170;42.502;26.526;2022-10-20T06:49:35;100279.78;;;17.10;66.01
20019;BME280;10170;42.502;26.526;2022-10-20T06:52:02;100284.78;;;16.53;68.58
20019;BME280;10170;42.502;26.526;2022-10-20T06:54:29;100281.44;;;16.58;67.65
20019;BME280;10170;42.502;26.526;2022-10-20T06:56:56;100295.41;;;16.30;68.15
20019;BME280;10170;42.502;26.526;2022-10-20T06:59:22;100286.28;;;16.49;66.91
20019;BME280;10170;42.502;26.526;2022-10-20T07:01:49;100305.22;;;15.89;66.17
20019;BME280;10170;42.502;26.526;2022-10-20T07:04:16;100311.44;;;17.08;63.57
20019;BME280;10170;42.502;26.526;2022-10-20T07:06:44;100317.88;;;17.18;62.44
20019;BME280;10170;42.502;26.526;2022-10-20T07:09:17;100304.88;;;16.92;62.21
20019;BME280;10170;42.502;26.526;2022-10-20T07:11:44;100298.47;;;17.16;62.99
20019;BME280;10170;42.502;26.526;2022-10-20T07:14:12;100309.00;;;17.87;60.98
20019;BME280;10170;42.502;26.526;2022-10-20T07:16:39;100307.13;;;18.27;58.95
20019;BME280;10170;42.502;26.526;2022-10-20T07:19:06;100315.59;;;18.19;58.34
20019;BME280;10170;42.502;26.526;2022-10-20T07:21:33;100320.69;;;17.23;59.31
20019;BME280;10170;42.502;26.526;2022-10-20T07:24:07;100295.72;;;16.22;61.82
20019;BME280;10170;42.502;26.526;2022-10-20T07:26:38;100314.00;;;15.77;63.40
20019;BME280;10170;42.502;26.526;2022-10-20T07:29:05;100314.47;;;15.93;63.53
20019;BME280;10170;42.502;26.526;2022-10-20T07:31:35;100316.97;;;15.69;65.29
20019;BME280;10170;42.502;26.526;2022-10-20T07:34:04;100316.38;;;16.69;65.63
20019;BME280;10170;42.502;26.526;2022-10-20T07:36:50;100312.69;;;17.05;64.18
20019;BME280;10170;42.502;26.526;2022-10-20T07:39:17;100309.72;;;17.71;63.35
20019;BME280;10170;42.502;26.526;2022-10-20T07:41:44;100315.72;;;18.13;62.37
20019;BME280;10170;42.502;26.526;2022-10-20T07:44:12;100317.22;;;18.60;63.75
20019;BME280;10170;42.502;26.526;2022-10-20T07:46:39;100316.66;;;19.36;62.03
20019;BME280;10170;42.502;26.526;2022-10-20T07:49:06;100315.13;;;19.78;61.58
20019;BME280;10170;42.502;26.526;2022-10-20T07:51:53;100295.56;;;20.09;65.69
20019;BME280;10170;42.502;26.526;2022-10-20T07:54:20;100316.78;;;20.22;67.66
20019;BME280;10170;42.502;26.526;2022-10-20T07:56:47;100325.34;;;20.62;66.92
20019;BME280;10170;42.502;26.526;2022-10-20T07:59:15;100312.97;;;20.40;68.31
20019;BME280;10170;42.502;26.526;2022-10-20T08:01:42;100316.25;;;19.44;74.08
20019;BME280;10170;42.502;26.526;2022-10-20T08:04:09;100313.06;;;19.68;82.04
20019;BME280;10170;42.502;26.526;2022-10-20T08:06:36;100314.19;;;20.11;81.08
20019;BME280;10170;42.502;26.526;2022-10-20T08:09:05;100317.94;;;19.88;78.89
20019;BME280;10170;42.502;26.526;2022-10-20T08:11:33;100326.56;;;19.68;82.00
20019;BME280;10170;42.502;26.526;2022-10-20T08:14:00;100325.47;;;19.48;83.36
20019;BME280;10170;42.502;26.526;2022-10-20T08:16:27;100316.34;;;19.32;83.35
20019;BME280;10170;42.502;26.526;2022-10-20T08:18:54;100323.50;;;19.10;85.10
20019;BME280;10170;42.502;26.526;2022-10-20T08:21:26;100326.88;;;18.72;88.78
20019;BME280;10170;42.502;26.526;2022-10-20T08:23:53;100332.44;;;18.26;94.95
20019;BME280;10170;42.502;26.526;2022-10-20T08:26:23;100332.97;;;18.68;93.47
20019;BME280;10170;42.502;26.526;2022-10-20T08:28:52;100333.88;;;19.02;87.06
20019;BME280;10170;42.502;26.526;2022-10-20T08:31:20;100334.88;;;19.29;82.49
20019;BME280;10170;42.502;26.526;2022-10-20T08:33:48;100341.53;;;18.25;88.84
20019;BME280;10170;42.502;26.526;2022-10-20T08:36:18;100343.88;;;17.70;100.00
20019;BME280;10170;42.502;26.526;2022-10-20T08:38:46;100338.03;;;17.62;100.00
20019;BME280;10170;42.502;26.526;2022-10-20T08:41:26;100335.16;;;17.11;100.00
20019;BME280;10170;42.502;26.526;2022-10-20T08:44:01;100359.72;;;17.37;100.00
20019;BME280;10170;42.502;26.526;2022-10-20T08:46:33;100344.44;;;17.84;100.00
20019;BME280;10170;42.502;26.526;2022-10-20T08:49:00;100345.25;;;17.96;100.00
20019;BME280;10170;42.502;26.526;2022-10-20T08:51:31;100343.59;;;17.37;100.00
20019;BME280;10170;42.502;26.526;2022-10-20T08:54:00;100361.66;;;17.60;100.00
20019;BME280;10170;42.502;26.526;2022-10-20T08:56:29;100340.81;;;17.90;100.00
20019;BME280;10170;42.502;26.526;2022-10-20T08:58:57;100372.66;;;17.58;100.00
20019;BME280;10170;42.502;26.526;2022-10-20T09:01:27;100361.41;;;17.84;100.00
20019;BME280;10170;42.502;26.526;2022-10-20T09:03:59;100365.34;;;18.05;97.59
20019;BME280;10170;42.502;26.526;2022-10-20T09:06:28;100371.94;;;18.49;94.08
20019;BME280;10170;42.502;26.526;2022-10-20T09:08:56;100365.25;;;17.77;94.53
20019;BME280;10170;42.502;26.526;2022-10-20T09:11:27;100352.06;;;18.27;90.34
20019;BME280;10170;42.502;26.526;2022-10-20T09:13:57;100374.66;;;18.37;86.86
20019;BME280;10170;42.502;26.526;2022-10-20T09:16:29;100375.38;;;18.44;86.24
20019;BME280;10170;42.502;26.526;2022-10-20T09:19:20;100371.41;;;18.75;83.91
20019;BME280;10170;42.502;26.526;2022-10-20T09:21:55;100365.19;;;18.35;82.17
20019;BME280;10170;42.502;26.526;2022-10-20T09:24:24;100378.25;;;17.68;91.18
20019;BME280;10170;42.502;26.526;2022-10-20T09:26:53;100378.00;;;18.05;90.41
20019;BME280;10170;42.502;26.526;2022-10-20T09:29:37;100373.22;;;18.46;84.81
20019;BME280;10170;42.502;26.526;2022-10-20T09:32:34;100382.47;;;18.50;82.91
20019;BME280;10170;42.502;26.526;2022-10-20T09:35:19;100376.81;;;18.63;81.28
20019;BME280;10170;42.502;26.526;2022-10-20T09:40:18;100379.69;;;19.02;80.14
20019;BME280;10170;42.502;26.526;2022-10-20T09:42:54;100381.22;;;18.41;81.19
20019;BME280;10170;42.502;26.526;2022-10-20T09:45:27;100380.03;;;18.77;77.79
20019;BME280;10170;42.502;26.526;2022-10-20T09:48:23;100391.38;;;19.24;75.40
20019;BME280;10170;42.502;26.526;2022-10-20T09:50:52;100387.25;;;19.33;75.26
20019;BME280;10170;42.502;26.526;2022-10-20T09:53:28;100386.22;;;19.34;72.96
20019;BME280;10170;42.502;26.526;2022-10-20T09:55:59;100390.63;;;19.40;71.54
20019;BME280;10170;42.502;26.526;2022-10-20T09:58:37;100383.84;;;18.92;71.85
20019;BME280;10170;42.502;26.526;2022-10-20T10:01:15;100385.56;;;18.99;71.54
20019;BME280;10170;42.502;26.526;2022-10-20T10:03:45;100387.78;;;19.02;72.77
20019;BME280;10170;42.502;26.526;2022-10-20T10:08:51;100391.25;;;18.85;72.07
20019;BME280;10170;42.502;26.526;2022-10-20T10:11:22;100380.94;;;19.11;71.87
20019;BME280;10170;42.502;26.526;2022-10-20T10:13:51;100403.84;;;19.25;71.11
20019;BME280;10170;42.502;26.526;2022-10-20T10:16:19;100391.03;;;19.48;70.45
20019;BME280;10170;42.502;26.526;2022-10-20T10:18:59;100386.53;;;19.09;69.44
20019;BME280;10170;42.502;26.526;2022-10-20T10:21:29;100397.41;;;18.98;71.06
20019;BME280;10170;42.502;26.526;2022-10-20T10:26:54;100391.16;;;18.80;72.71
20019;BME280;10170;42.502;26.526;2022-10-20T10:32:01;100381.59;;;18.73;73.91
20019;BME280;10170;42.502;26.526;2022-10-20T10:34:38;100385.91;;;19.19;70.53
20019;BME280;10170;42.502;26.526;2022-10-20T10:37:13;100381.06;;;19.49;68.40
20019;BME280;10170;42.502;26.526;2022-10-20T10:39:42;100378.66;;;18.74;69.87
20019;BME280;10170;42.502;26.526;2022-10-20T10:45:31;100378.91;;;18.73;69.87
20019;BME280;10170;42.502;26.526;2022-10-20T10:50:56;100361.06;;;18.32;70.61
20019;BME280;10170;42.502;26.526;2022-10-20T10:53:55;100362.88;;;19.28;67.11
20019;BME280;10170;42.502;26.526;2022-10-20T10:56:50;100352.25;;;19.71;65.72
20019;BME280;10170;42.502;26.526;2022-10-20T10:59:21;100350.78;;;20.18;63.52
20019;BME280;10170;42.502;26.526;2022-10-20T11:07:40;100337.41;;;19.52;62.60
20019;BME280;10170;42.502;26.526;2022-10-20T11:15:42;100337.06;;;20.46;58.16
20019;BME280;10170;42.502;26.526;2022-10-20T11:18:42;100345.56;;;20.33;59.85
20019;BME280;10170;42.502;26.526;2022-10-20T11:21:27;100342.81;;;19.90;60.01
20019;BME280;10170;42.502;26.526;2022-10-20T11:24:01;100336.91;;;19.55;60.63
20019;BME280;10170;42.502;26.526;2022-10-20T11:26:41;100334.25;;;20.15;59.75
20019;BME280;10170;42.502;26.526;2022-10-20T11:29:15;100336.31;;;20.08;59.31
20019;BME280;10170;42.502;26.526;2022-10-20T11:31:52;100348.38;;;20.43;58.39
20019;BME280;10170;42.502;26.526;2022-10-20T11:34:31;100331.38;;;20.21;58.46
20019;BME280;10170;42.502;26.526;2022-10-20T11:37:09;100340.66;;;20.52;57.32
20019;BME280;10170;42.502;26.526;2022-10-20T11:39:43;100341.28;;;20.37;57.49
20019;BME280;10170;42.502;26.526;2022-10-20T11:42:22;100338.56;;;20.59;55.88
20019;BME280;10170;42.502;26.526;2022-10-20T11:44:53;100327.59;;;20.70;55.65
20019;BME280;10170;42.502;26.526;2022-10-20T11:47:29;100322.03;;;20.82;56.23
20019;BME280;10170;42.502;26.526;2022-10-20T11:49:58;100334.44;;;20.30;56.23
20019;BME280;10170;42.502;26.526;2022-10-20T11:52:32;100327.13;;;20.78;55.04
20019;BME280;10170;42.502;26.526;2022-10-20T11:55:38;100333.56;;;20.72;55.04
20019;BME280;10170;42.502;26.526;2022-10-20T11:59:00;100330.66;;;20.52;55.62
20019;BME280;10170;42.502;26.526;2022-10-20T12:05:02;100315.66;;;20.66;55.29
20019;BME280;10170;42.502;26.526;2022-10-20T12:10:48;100324.44;;;20.78;54.87
20019;BME280;10170;42.502;26.526;2022-10-20T12:15:48;100317.56;;;21.66;52.62
20019;BME280;10170;42.502;26.526;2022-10-20T12:18:28;100318.44;;;20.23;54.50
20019;BME280;10170;42.502;26.526;2022-10-20T12:29:01;100317.84;;;19.28;57.85
20019;BME280;10170;42.502;26.526;2022-10-20T12:34:40;100320.94;;;19.91;56.56
20019;BME280;10170;42.502;26.526;2022-10-20T12:37:16;100309.13;;;19.76;57.11
20019;BME280;10170;42.502;26.526;2022-10-20T12:39:44;100308.53;;;19.90;56.51
20019;BME280;10170;42.502;26.526;2022-10-20T12:42:35;100329.06;;;20.56;55.23
20019;BME280;10170;42.502;26.526;2022-10-20T12:47:48;100314.50;;;20.14;56.50
20019;BME280;10170;42.502;26.526;2022-10-20T12:50:38;100316.50;;;19.80;56.90
20019;BME280;10170;42.502;26.526;2022-10-20T12:53:21;100314.47;;;19.71;57.26
20019;BME280;10170;42.502;26.526;2022-10-20T12:56:02;100318.84;;;19.39;57.73
20019;BME280;10170;42.502;26.526;2022-10-20T13:01:19;100307.97;;;19.50;57.42
20019;BME280;10170;42.502;26.526;2022-10-20T13:03:47;100315.47;;;18.99;58.69
20019;BME280;10170;42.502;26.526;2022-10-20T13:11:57;100323.81;;;19.47;57.32
20019;BME280;10170;42.502;26.526;2022-10-20T13:14:44;100327.56;;;19.13;58.18
20019;BME280;10170;42.502;26.526;2022-10-20T13:19:53;100322.44;;;18.66;59.25
20019;BME280;10170;42.502;26.526;2022-10-20T13:22:37;100333.44;;;18.76;59.35
20019;BME280;10170;42.502;26.526;2022-10-20T13:25:28;100333.09;;;18.89;59.32
20019;BME280;10170;42.502;26.526;2022-10-20T13:33:37;100329.44;;;18.96;58.62
20019;BME280;10170;42.502;26.526;2022-10-20T13:44:53;100330.44;;;18.61;59.54
20019;BME280;10170;42.502;26.526;2022-10-20T13:50:22;100339.78;;;18.70;59.40
20019;BME280;10170;42.502;26.526;2022-10-20T13:52:56;100335.56;;;18.91;59.48
20019;BME280;10170;42.502;26.526;2022-10-20T13:58:21;100331.94;;;18.69;59.55
20019;BME280;10170;42.502;26.526;2022-10-20T14:01:14;100331.50;;;18.60;59.51
20019;BME280;10170;42.502;26.526;2022-10-20T14:03:49;100349.34;;;18.38;61.38
20019;BME280;10170;42.502;26.526;2022-10-20T14:08:54;100341.63;;;18.30;61.24
20019;BME280;10170;42.502;26.526;2022-10-20T14:11:21;100337.88;;;17.80;62.13
20019;BME280;10170;42.502;26.526;2022-10-20T14:13:48;100343.63;;;17.83;63.12
20019;BME280;10170;42.502;26.526;2022-10-20T14:16:18;100337.19;;;17.73;64.08
20019;BME280;10170;42.502;26.526;2022-10-20T14:19:10;100346.81;;;17.69;64.39
20019;BME280;10170;42.502;26.526;2022-10-20T14:21:42;100343.25;;;17.80;64.34
20019;BME280;10170;42.502;26.526;2022-10-20T14:24:17;100343.16;;;17.40;65.95
20019;BME280;10170;42.502;26.526;2022-10-20T14:26:48;100349.41;;;17.11;67.74
20019;BME280;10170;42.502;26.526;2022-10-20T14:29:17;100338.16;;;16.91;69.75
20019;BME280;10170;42.502;26.526;2022-10-20T14:31:45;100356.91;;;17.21;69.14
20019;BME280;10170;42.502;26.526;2022-10-20T14:34:20;100286.50;;;16.48;71.13
20019;BME280;10170;42.502;26.526;2022-10-20T14:36:49;100340.31;;;16.71;72.96
20019;BME280;10170;42.502;26.526;2022-10-20T14:39:38;100339.63;;;16.75;74.15
20019;BME280;10170;42.502;26.526;2022-10-20T14:42:29;100350.97;;;16.77;74.14
20019;BME280;10170;42.502;26.526;2022-10-20T14:44:58;100355.09;;;16.62;75.80
20019;BME280;10170;42.502;26.526;2022-10-20T14:47:46;100345.06;;;16.39;78.05
20019;BME280;10170;42.502;26.526;2022-10-20T14:50:34;100363.75;;;16.46;78.46
20019;BME280;10170;42.502;26.526;2022-10-20T14:55:57;100357.50;;;16.34;79.96